sensor_id;sensor_type;location;lat;lon;timestamp;P1;durP1;ratioP1;P2;durP2;ratioP2
67717;SDS011;54511;47.532;19.180;2022-10-03T00:02:27;1.85;;;1.37;;
67717;SDS011;54511;47.532;19.180;2022-10-03T00:05:52;1.65;;;1.20;;
67717;SDS011;54511;47.532;19.180;2022-10-03T00:09:25;1.60;;;0.90;;
67717;SDS011;54511;47.532;19.180;2022-10-03T00:12:49;1.35;;;1.20;;
67717;SDS011;54511;47.532;19.180;2022-10-03T00:36:18;4.05;;;1.30;;
67717;SDS011;54511;47.532;19.180;2022-10-03T00:39:48;3.47;;;1.33;;
67717;SDS011;54511;47.532;19.180;2022-10-03T01:00:26;2.90;;;1.20;;
67717;SDS011;54511;47.532;19.180;2022-10-03T01:03:54;3.12;;;1.25;;
67717;SDS011;54511;47.532;19.180;2022-10-03T01:07:49;2.47;;;1.20;;
67717;SDS011;54511;47.532;19.180;2022-10-03T01:11:34;1.98;;;1.20;;
67717;SDS011;54511;47.532;19.180;2022-10-03T01:15:02;3.17;;;1.37;;
67717;SDS011;54511;47.532;19.180;2022-10-03T01:18:27;2.90;;;1.17;;
67717;SDS011;54511;47.532;19.180;2022-10-03T01:21:59;3.47;;;1.60;;
67717;SDS011;54511;47.532;19.180;2022-10-03T01:25:31;5.12;;;1.42;;
67717;SDS011;54511;47.532;19.180;2022-10-03T01:39:10;4.10;;;1.45;;
67717;SDS011;54511;47.532;19.180;2022-10-03T01:42:32;3.70;;;1.67;;
67717;SDS011;54511;47.532;19.180;2022-10-03T01:45:59;5.75;;;2.10;;
67717;SDS011;54511;47.532;19.180;2022-10-03T01:49:19;5.07;;;1.85;;
67717;SDS011;54511;47.532;19.180;2022-10-03T01:55:46;3.65;;;1.80;;
67717;SDS011;54511;47.532;19.180;2022-10-03T01:59:06;3.42;;;1.60;;
67717;SDS011;54511;47.532;19.180;2022-10-03T02:02:41;3.55;;;1.50;;
67717;SDS011;54511;47.532;19.180;2022-10-03T02:06:04;2.55;;;1.40;;
67717;SDS011;54511;47.532;19.180;2022-10-03T02:35:49;6.45;;;2.00;;
67717;SDS011;54511;47.532;19.180;2022-10-03T03:09:45;4.40;;;2.28;;
67717;SDS011;54511;47.532;19.180;2022-10-03T03:13:31;4.28;;;2.28;;
67717;SDS011;54511;47.532;19.180;2022-10-03T03:16:59;4.62;;;2.10;;
67717;SDS011;54511;47.532;19.180;2022-10-03T03:20:38;5.32;;;2.72;;
67717;SDS011;54511;47.532;19.180;2022-10-03T03:23:52;3.47;;;2.12;;
67717;SDS011;54511;47.532;19.180;2022-10-03T03:37:12;5.03;;;2.80;;
67717;SDS011;54511;47.532;19.180;2022-10-03T03:40:30;7.65;;;3.05;;
67717;SDS011;54511;47.532;19.180;2022-10-03T03:44:17;3.10;;;2.17;;
67717;SDS011;54511;47.532;19.180;2022-10-03T03:47:55;6.28;;;2.42;;
67717;SDS011;54511;47.532;19.180;2022-10-03T03:54:39;5.25;;;2.22;;
67717;SDS011;54511;47.532;19.180;2022-10-03T03:58:12;4.53;;;2.10;;
67717;SDS011;54511;47.532;19.180;2022-10-03T04:01:43;4.43;;;2.42;;
67717;SDS011;54511;47.532;19.180;2022-10-03T04:05:12;9.82;;;2.78;;
67717;SDS011;54511;47.532;19.180;2022-10-03T04:08:52;4.97;;;2.20;;
67717;SDS011;54511;47.532;19.180;2022-10-03T04:12:25;6.85;;;2.62;;
67717;SDS011;54511;47.532;19.180;2022-10-03T04:16:04;12.23;;;2.72;;
67717;SDS011;54511;47.532;19.180;2022-10-03T04:19:38;4.55;;;2.30;;
67717;SDS011;54511;47.532;19.180;2022-10-03T04:23:18;4.70;;;2.40;;
67717;SDS011;54511;47.532;19.180;2022-10-03T04:26:40;6.20;;;2.50;;
67717;SDS011;54511;47.532;19.180;2022-10-03T04:30:14;5.50;;;3.05;;
67717;SDS011;54511;47.532;19.180;2022-10-03T04:33:53;5.10;;;2.83;;
67717;SDS011;54511;47.532;19.180;2022-10-03T04:37:31;7.22;;;2.53;;
67717;SDS011;54511;47.532;19.180;2022-10-03T04:41:03;4.28;;;2.60;;
67717;SDS011;54511;47.532;19.180;2022-10-03T04:44:32;4.93;;;2.65;;
67717;SDS011;54511;47.532;19.180;2022-10-03T04:48:04;7.37;;;2.60;;
67717;SDS011;54511;47.532;19.180;2022-10-03T04:51:23;6.78;;;2.72;;
67717;SDS011;54511;47.532;19.180;2022-10-03T04:54:53;5.72;;;2.55;;
67717;SDS011;54511;47.532;19.180;2022-10-03T04:58:31;4.75;;;2.65;;
67717;SDS011;54511;47.532;19.180;2022-10-03T05:25:57;5.40;;;2.78;;
67717;SDS011;54511;47.532;19.180;2022-10-03T05:32:47;4.78;;;2.97;;
67717;SDS011;54511;47.532;19.180;2022-10-03T06:09:05;3.90;;;2.30;;
67717;SDS011;54511;47.532;19.180;2022-10-03T06:12:23;7.07;;;2.40;;
67717;SDS011;54511;47.532;19.180;2022-10-03T06:15:57;5.45;;;2.35;;
67717;SDS011;54511;47.532;19.180;2022-10-03T06:36:21;4.30;;;2.20;;
67717;SDS011;54511;47.532;19.180;2022-10-03T06:46:05;4.87;;;1.95;;
67717;SDS011;54511;47.532;19.180;2022-10-03T06:56:04;6.25;;;2.00;;
67717;SDS011;54511;47.532;19.180;2022-10-03T07:06:23;4.57;;;2.00;;
67717;SDS011;54511;47.532;19.180;2022-10-03T07:16:13;6.25;;;1.95;;
67717;SDS011;54511;47.532;19.180;2022-10-03T07:19:54;4.65;;;2.17;;
67717;SDS011;54511;47.532;19.180;2022-10-03T07:26:46;4.78;;;1.90;;
67717;SDS011;54511;47.532;19.180;2022-10-03T07:29:37;3.85;;;1.60;;
67717;SDS011;54511;47.532;19.180;2022-10-03T07:36:20;5.90;;;1.70;;
67717;SDS011;54511;47.532;19.180;2022-10-03T07:40:02;4.40;;;1.70;;
67717;SDS011;54511;47.532;19.180;2022-10-03T07:43:19;6.35;;;1.98;;
67717;SDS011;54511;47.532;19.180;2022-10-03T07:46:59;6.62;;;1.60;;
67717;SDS011;54511;47.532;19.180;2022-10-03T07:56:36;3.87;;;1.40;;
67717;SDS011;54511;47.532;19.180;2022-10-03T07:59:45;5.25;;;1.37;;
67717;SDS011;54511;47.532;19.180;2022-10-03T08:06:36;8.38;;;1.50;;
67717;SDS011;54511;47.532;19.180;2022-10-03T08:09:18;4.57;;;1.52;;
67717;SDS011;54511;47.532;19.180;2022-10-03T08:16:22;5.40;;;1.30;;
67717;SDS011;54511;47.532;19.180;2022-10-03T08:19:09;6.65;;;2.10;;
67717;SDS011;54511;47.532;19.180;2022-10-03T08:22:04;3.53;;;1.70;;
67717;SDS011;54511;47.532;19.180;2022-10-03T08:24:53;2.45;;;1.42;;
67717;SDS011;54511;47.532;19.180;2022-10-03T08:31:43;6.22;;;1.60;;
67717;SDS011;54511;47.532;19.180;2022-10-03T08:34:54;5.37;;;1.52;;
67717;SDS011;54511;47.532;19.180;2022-10-03T08:38:23;4.35;;;1.52;;
67717;SDS011;54511;47.532;19.180;2022-10-03T08:48:38;5.03;;;1.27;;
67717;SDS011;54511;47.532;19.180;2022-10-03T08:52:01;5.75;;;1.50;;
67717;SDS011;54511;47.532;19.180;2022-10-03T08:55:37;3.70;;;1.02;;
67717;SDS011;54511;47.532;19.180;2022-10-03T09:01:57;6.80;;;1.73;;
67717;SDS011;54511;47.532;19.180;2022-10-03T09:05:08;5.45;;;1.45;;
67717;SDS011;54511;47.532;19.180;2022-10-03T09:11:30;5.10;;;1.70;;
67717;SDS011;54511;47.532;19.180;2022-10-03T09:14:11;5.15;;;1.10;;
67717;SDS011;54511;47.532;19.180;2022-10-03T09:17:24;6.62;;;1.20;;
67717;SDS011;54511;47.532;19.180;2022-10-03T09:20:58;6.25;;;1.40;;
67717;SDS011;54511;47.532;19.180;2022-10-03T09:23:54;3.87;;;1.33;;
67717;SDS011;54511;47.532;19.180;2022-10-03T09:26:53;4.47;;;1.33;;
67717;SDS011;54511;47.532;19.180;2022-10-03T09:29:31;5.93;;;1.30;;
67717;SDS011;54511;47.532;19.180;2022-10-03T09:35:24;2.42;;;1.15;;
67717;SDS011;54511;47.532;19.180;2022-10-03T09:44:35;4.82;;;1.15;;
67717;SDS011;54511;47.532;19.180;2022-10-03T09:51:19;2.08;;;1.17;;
67717;SDS011;54511;47.532;19.180;2022-10-03T10:00:14;3.17;;;1.35;;
67717;SDS011;54511;47.532;19.180;2022-10-03T10:02:56;2.67;;;1.40;;
67717;SDS011;54511;47.532;19.180;2022-10-03T10:06:01;3.42;;;1.35;;
67717;SDS011;54511;47.532;19.180;2022-10-03T10:11:58;3.17;;;1.23;;
67717;SDS011;54511;47.532;19.180;2022-10-03T10:15:00;3.80;;;1.23;;
67717;SDS011;54511;47.532;19.180;2022-10-03T10:17:55;2.15;;;1.27;;
67717;SDS011;54511;47.532;19.180;2022-10-03T10:20:57;2.78;;;1.30;;
67717;SDS011;54511;47.532;19.180;2022-10-03T10:24:33;3.70;;;1.33;;
67717;SDS011;54511;47.532;19.180;2022-10-03T10:27:30;3.40;;;1.12;;
67717;SDS011;54511;47.532;19.180;2022-10-03T10:30:20;2.53;;;1.12;;
67717;SDS011;54511;47.532;19.180;2022-10-03T10:39:47;5.57;;;1.45;;
67717;SDS011;54511;47.532;19.180;2022-10-03T10:45:37;3.15;;;1.20;;
67717;SDS011;54511;47.532;19.180;2022-10-03T10:48:49;5.50;;;1.45;;
67717;SDS011;54511;47.532;19.180;2022-10-03T10:54:39;3.15;;;1.45;;
67717;SDS011;54511;47.532;19.180;2022-10-03T11:00:41;2.10;;;1.10;;
67717;SDS011;54511;47.532;19.180;2022-10-03T11:09:38;1.60;;;1.10;;
67717;SDS011;54511;47.532;19.180;2022-10-03T11:15:52;2.62;;;1.67;;
67717;SDS011;54511;47.532;19.180;2022-10-03T11:22:05;4.00;;;1.40;;
67717;SDS011;54511;47.532;19.180;2022-10-03T11:31:38;3.47;;;1.30;;
67717;SDS011;54511;47.532;19.180;2022-10-03T11:34:53;1.23;;;1.00;;
67717;SDS011;54511;47.532;19.180;2022-10-03T11:37:42;3.58;;;1.25;;
67717;SDS011;54511;47.532;19.180;2022-10-03T11:40:14;2.78;;;1.00;;
67717;SDS011;54511;47.532;19.180;2022-10-03T11:43:29;2.90;;;1.30;;
67717;SDS011;54511;47.532;19.180;2022-10-03T11:46:21;5.45;;;1.52;;
67717;SDS011;54511;47.532;19.180;2022-10-03T11:49:00;5.07;;;1.95;;
67717;SDS011;54511;47.532;19.180;2022-10-03T11:52:00;5.72;;;1.60;;
67717;SDS011;54511;47.532;19.180;2022-10-03T11:54:35;5.05;;;1.52;;
67717;SDS011;54511;47.532;19.180;2022-10-03T11:57:05;10.05;;;1.48;;
67717;SDS011;54511;47.532;19.180;2022-10-03T11:59:38;3.70;;;1.40;;
67717;SDS011;54511;47.532;19.180;2022-10-03T12:02:14;3.83;;;1.00;;
67717;SDS011;54511;47.532;19.180;2022-10-03T12:04:55;3.72;;;1.23;;
67717;SDS011;54511;47.532;19.180;2022-10-03T12:07:31;2.78;;;1.08;;
67717;SDS011;54511;47.532;19.180;2022-10-03T12:10:28;2.25;;;1.55;;
67717;SDS011;54511;47.532;19.180;2022-10-03T12:13:00;1.62;;;1.00;;
67717;SDS011;54511;47.532;19.180;2022-10-03T12:15:34;1.83;;;1.15;;
67717;SDS011;54511;47.532;19.180;2022-10-03T12:18:05;2.05;;;1.10;;
67717;SDS011;54511;47.532;19.180;2022-10-03T12:20:41;1.95;;;1.12;;
67717;SDS011;54511;47.532;19.180;2022-10-03T12:23:19;1.92;;;0.95;;
67717;SDS011;54511;47.532;19.180;2022-10-03T12:25:56;1.73;;;1.08;;
67717;SDS011;54511;47.532;19.180;2022-10-03T12:28:26;2.08;;;1.10;;
67717;SDS011;54511;47.532;19.180;2022-10-03T12:30:57;5.20;;;1.40;;
67717;SDS011;54511;47.532;19.180;2022-10-03T12:33:35;6.18;;;1.70;;
67717;SDS011;54511;47.532;19.180;2022-10-03T12:36:16;4.37;;;1.30;;
67717;SDS011;54511;47.532;19.180;2022-10-03T12:38:53;2.80;;;1.30;;
67717;SDS011;54511;47.532;19.180;2022-10-03T12:41:32;2.15;;;1.20;;
67717;SDS011;54511;47.532;19.180;2022-10-03T12:44:13;2.00;;;1.23;;
67717;SDS011;54511;47.532;19.180;2022-10-03T12:46:47;2.92;;;1.10;;
67717;SDS011;54511;47.532;19.180;2022-10-03T12:49:18;1.37;;;0.90;;
67717;SDS011;54511;47.532;19.180;2022-10-03T12:52:01;5.05;;;1.20;;
67717;SDS011;54511;47.532;19.180;2022-10-03T12:54:36;1.08;;;0.80;;
67717;SDS011;54511;47.532;19.180;2022-10-03T13:00:18;1.27;;;0.80;;
67717;SDS011;54511;47.532;19.180;2022-10-03T13:02:52;1.20;;;0.70;;
67717;SDS011;54511;47.532;19.180;2022-10-03T13:08:30;1.90;;;0.70;;
67717;SDS011;54511;47.532;19.180;2022-10-03T13:11:07;2.60;;;1.10;;
67717;SDS011;54511;47.532;19.180;2022-10-03T13:13:54;2.70;;;1.10;;
67717;SDS011;54511;47.532;19.180;2022-10-03T13:16:31;2.15;;;1.30;;
67717;SDS011;54511;47.532;19.180;2022-10-03T13:18:59;4.72;;;1.05;;
67717;SDS011;54511;47.532;19.180;2022-10-03T13:21:46;1.23;;;1.05;;
67717;SDS011;54511;47.532;19.180;2022-10-03T13:27:08;4.85;;;1.65;;
67717;SDS011;54511;47.532;19.180;2022-10-03T13:29:46;3.10;;;1.50;;
67717;SDS011;54511;47.532;19.180;2022-10-03T13:32:16;2.42;;;1.17;;
67717;SDS011;54511;47.532;19.180;2022-10-03T13:34:59;2.70;;;1.17;;
67717;SDS011;54511;47.532;19.180;2022-10-03T13:37:47;2.97;;;1.30;;
67717;SDS011;54511;47.532;19.180;2022-10-03T13:40:26;3.12;;;1.35;;
67717;SDS011;54511;47.532;19.180;2022-10-03T13:43:01;1.17;;;1.00;;
67717;SDS011;54511;47.532;19.180;2022-10-03T13:45:28;2.03;;;1.20;;
67717;SDS011;54511;47.532;19.180;2022-10-03T13:47:57;1.58;;;1.00;;
67717;SDS011;54511;47.532;19.180;2022-10-03T13:50:27;1.52;;;1.12;;
67717;SDS011;54511;47.532;19.180;2022-10-03T13:52:57;3.43;;;1.07;;
67717;SDS011;54511;47.532;19.180;2022-10-03T13:55:30;4.78;;;1.50;;
67717;SDS011;54511;47.532;19.180;2022-10-03T13:58:14;1.65;;;1.00;;
67717;SDS011;54511;47.532;19.180;2022-10-03T14:00:52;2.85;;;1.00;;
67717;SDS011;54511;47.532;19.180;2022-10-03T14:03:29;2.40;;;1.00;;
67717;SDS011;54511;47.532;19.180;2022-10-03T14:06:05;1.65;;;1.10;;
67717;SDS011;54511;47.532;19.180;2022-10-03T14:08:41;1.83;;;1.10;;
67717;SDS011;54511;47.532;19.180;2022-10-03T14:11:37;3.17;;;1.30;;
67717;SDS011;54511;47.532;19.180;2022-10-03T14:14:22;1.83;;;1.20;;
67717;SDS011;54511;47.532;19.180;2022-10-03T14:16:59;3.72;;;1.10;;
67717;SDS011;54511;47.532;19.180;2022-10-03T14:19:33;1.50;;;1.02;;
67717;SDS011;54511;47.532;19.180;2022-10-03T14:22:16;2.47;;;1.05;;
67717;SDS011;54511;47.532;19.180;2022-10-03T14:24:56;2.15;;;1.23;;
67717;SDS011;54511;47.532;19.180;2022-10-03T14:30:18;2.30;;;1.20;;
67717;SDS011;54511;47.532;19.180;2022-10-03T14:32:49;4.82;;;1.30;;
67717;SDS011;54511;47.532;19.180;2022-10-03T14:35:29;3.55;;;1.48;;
67717;SDS011;54511;47.532;19.180;2022-10-03T14:38:08;2.55;;;1.30;;
67717;SDS011;54511;47.532;19.180;2022-10-03T14:41:09;1.67;;;1.10;;
67717;SDS011;54511;47.532;19.180;2022-10-03T14:43:42;2.55;;;1.20;;
67717;SDS011;54511;47.532;19.180;2022-10-03T14:46:13;1.23;;;0.85;;
67717;SDS011;54511;47.532;19.180;2022-10-03T14:48:43;1.83;;;1.10;;
67717;SDS011;54511;47.532;19.180;2022-10-03T14:51:19;1.23;;;0.90;;
67717;SDS011;54511;47.532;19.180;2022-10-03T14:53:51;1.15;;;1.05;;
67717;SDS011;54511;47.532;19.180;2022-10-03T14:56:21;2.40;;;0.80;;
67717;SDS011;54511;47.532;19.180;2022-10-03T14:58:51;2.50;;;0.90;;
67717;SDS011;54511;47.532;19.180;2022-10-03T15:01:20;3.73;;;1.00;;
67717;SDS011;54511;47.532;19.180;2022-10-03T15:03:54;2.78;;;1.15;;
67717;SDS011;54511;47.532;19.180;2022-10-03T15:06:32;1.80;;;0.77;;
67717;SDS011;54511;47.532;19.180;2022-10-03T15:09:39;1.33;;;0.80;;
67717;SDS011;54511;47.532;19.180;2022-10-03T15:12:10;1.48;;;1.12;;
67717;SDS011;54511;47.532;19.180;2022-10-03T15:14:44;1.20;;;0.82;;
67717;SDS011;54511;47.532;19.180;2022-10-03T15:19:45;2.65;;;0.90;;
67717;SDS011;54511;47.532;19.180;2022-10-03T15:22:19;1.92;;;0.73;;
67717;SDS011;54511;47.532;19.180;2022-10-03T15:24:52;3.25;;;1.42;;
67717;SDS011;54511;47.532;19.180;2022-10-03T15:27:24;3.22;;;1.10;;
67717;SDS011;54511;47.532;19.180;2022-10-03T15:29:57;2.40;;;0.90;;
67717;SDS011;54511;47.532;19.180;2022-10-03T15:32:32;2.15;;;0.90;;
67717;SDS011;54511;47.532;19.180;2022-10-03T15:35:02;1.48;;;1.00;;
67717;SDS011;54511;47.532;19.180;2022-10-03T15:37:33;1.95;;;1.15;;
67717;SDS011;54511;47.532;19.180;2022-10-03T15:40:27;3.17;;;1.60;;
67717;SDS011;54511;47.532;19.180;2022-10-03T15:43:00;1.83;;;1.23;;
67717;SDS011;54511;47.532;19.180;2022-10-03T15:45:33;2.42;;;1.10;;
67717;SDS011;54511;47.532;19.180;2022-10-03T15:48:11;3.22;;;1.85;;
67717;SDS011;54511;47.532;19.180;2022-10-03T15:50:42;1.50;;;1.00;;
67717;SDS011;54511;47.532;19.180;2022-10-03T15:53:35;2.05;;;1.15;;
67717;SDS011;54511;47.532;19.180;2022-10-03T15:56:22;1.50;;;1.10;;
67717;SDS011;54511;47.532;19.180;2022-10-03T15:58:54;4.25;;;1.48;;
67717;SDS011;54511;47.532;19.180;2022-10-03T16:01:26;2.60;;;1.20;;
67717;SDS011;54511;47.532;19.180;2022-10-03T16:03:56;3.30;;;1.43;;
67717;SDS011;54511;47.532;19.180;2022-10-03T16:06:29;2.10;;;1.23;;
67717;SDS011;54511;47.532;19.180;2022-10-03T16:09:00;2.50;;;1.15;;
67717;SDS011;54511;47.532;19.180;2022-10-03T16:11:31;2.67;;;1.12;;
67717;SDS011;54511;47.532;19.180;2022-10-03T16:14:08;2.70;;;1.45;;
67717;SDS011;54511;47.532;19.180;2022-10-03T16:16:43;1.98;;;1.10;;
67717;SDS011;54511;47.532;19.180;2022-10-03T16:19:21;3.97;;;1.70;;
67717;SDS011;54511;47.532;19.180;2022-10-03T16:21:52;4.10;;;2.50;;
67717;SDS011;54511;47.532;19.180;2022-10-03T16:24:29;4.25;;;1.65;;
67717;SDS011;54511;47.532;19.180;2022-10-03T16:27:02;2.80;;;1.10;;
67717;SDS011;54511;47.532;19.180;2022-10-03T16:29:33;1.87;;;1.02;;
67717;SDS011;54511;47.532;19.180;2022-10-03T16:32:05;2.22;;;1.10;;
67717;SDS011;54511;47.532;19.180;2022-10-03T16:34:33;2.10;;;1.08;;
67717;SDS011;54511;47.532;19.180;2022-10-03T16:37:03;3.10;;;1.27;;
67717;SDS011;54511;47.532;19.180;2022-10-03T16:39:41;1.30;;;1.20;;
67717;SDS011;54511;47.532;19.180;2022-10-03T16:42:09;2.30;;;1.12;;
67717;SDS011;54511;47.532;19.180;2022-10-03T16:44:38;2.80;;;1.10;;
67717;SDS011;54511;47.532;19.180;2022-10-03T16:47:09;1.33;;;0.77;;
67717;SDS011;54511;47.532;19.180;2022-10-03T16:49:38;1.45;;;0.93;;
67717;SDS011;54511;47.532;19.180;2022-10-03T16:52:29;4.28;;;1.20;;
67717;SDS011;54511;47.532;19.180;2022-10-03T16:54:58;2.45;;;1.30;;
67717;SDS011;54511;47.532;19.180;2022-10-03T16:57:51;4.30;;;1.70;;
67717;SDS011;54511;47.532;19.180;2022-10-03T17:01:01;3.33;;;1.75;;
67717;SDS011;54511;47.532;19.180;2022-10-03T17:03:53;2.47;;;1.20;;
67717;SDS011;54511;47.532;19.180;2022-10-03T17:06:43;4.73;;;1.93;;
67717;SDS011;54511;47.532;19.180;2022-10-03T17:09:51;5.90;;;2.03;;
67717;SDS011;54511;47.532;19.180;2022-10-03T17:12:22;4.12;;;2.30;;
67717;SDS011;54511;47.532;19.180;2022-10-03T17:15:21;2.37;;;1.62;;
67717;SDS011;54511;47.532;19.180;2022-10-03T17:17:55;3.83;;;2.00;;
67717;SDS011;54511;47.532;19.180;2022-10-03T17:20:40;2.53;;;1.35;;
67717;SDS011;54511;47.532;19.180;2022-10-03T17:23:52;2.50;;;1.33;;
67717;SDS011;54511;47.532;19.180;2022-10-03T17:26:49;2.42;;;1.20;;
67717;SDS011;54511;47.532;19.180;2022-10-03T17:29:25;5.45;;;1.80;;
67717;SDS011;54511;47.532;19.180;2022-10-03T17:32:50;3.08;;;1.85;;
67717;SDS011;54511;47.532;19.180;2022-10-03T17:36:41;4.12;;;1.50;;
67717;SDS011;54511;47.532;19.180;2022-10-03T17:40:01;3.10;;;1.50;;
67717;SDS011;54511;47.532;19.180;2022-10-03T17:43:29;1.95;;;1.30;;
67717;SDS011;54511;47.532;19.180;2022-10-03T17:46:38;2.17;;;1.10;;
67717;SDS011;54511;47.532;19.180;2022-10-03T17:49:26;3.72;;;1.90;;
67717;SDS011;54511;47.532;19.180;2022-10-03T17:52:30;3.40;;;1.80;;
67717;SDS011;54511;47.532;19.180;2022-10-03T17:55:22;3.83;;;2.05;;
67717;SDS011;54511;47.532;19.180;2022-10-03T17:58:11;6.15;;;1.90;;
67717;SDS011;54511;47.532;19.180;2022-10-03T18:00:54;3.87;;;2.03;;
67717;SDS011;54511;47.532;19.180;2022-10-03T18:03:27;3.40;;;2.17;;
67717;SDS011;54511;47.532;19.180;2022-10-03T18:09:56;6.67;;;3.30;;
67717;SDS011;54511;47.532;19.180;2022-10-03T18:12:28;5.87;;;2.45;;
67717;SDS011;54511;47.532;19.180;2022-10-03T18:15:51;5.50;;;2.50;;
67717;SDS011;54511;47.532;19.180;2022-10-03T18:19:21;4.10;;;2.28;;
67717;SDS011;54511;47.532;19.180;2022-10-03T18:22:57;2.28;;;1.25;;
67717;SDS011;54511;47.532;19.180;2022-10-03T18:26:26;5.10;;;2.50;;
67717;SDS011;54511;47.532;19.180;2022-10-03T18:29:54;2.90;;;1.52;;
67717;SDS011;54511;47.532;19.180;2022-10-03T18:33:22;7.70;;;2.65;;
67717;SDS011;54511;47.532;19.180;2022-10-03T18:36:51;12.65;;;4.20;;
67717;SDS011;54511;47.532;19.180;2022-10-03T18:40:24;3.05;;;1.67;;
67717;SDS011;54511;47.532;19.180;2022-10-03T18:44:10;2.22;;;1.30;;
67717;SDS011;54511;47.532;19.180;2022-10-03T18:47:47;2.53;;;1.50;;
67717;SDS011;54511;47.532;19.180;2022-10-03T18:51:22;2.80;;;1.67;;
67717;SDS011;54511;47.532;19.180;2022-10-03T18:54:53;1.80;;;1.27;;
67717;SDS011;54511;47.532;19.180;2022-10-03T18:58:20;1.75;;;1.17;;
67717;SDS011;54511;47.532;19.180;2022-10-03T19:01:49;2.75;;;1.25;;
67717;SDS011;54511;47.532;19.180;2022-10-03T19:05:27;3.92;;;1.45;;
67717;SDS011;54511;47.532;19.180;2022-10-03T19:08:48;2.10;;;1.10;;
67717;SDS011;54511;47.532;19.180;2022-10-03T19:12:14;5.22;;;2.08;;
67717;SDS011;54511;47.532;19.180;2022-10-03T19:15:47;7.25;;;3.15;;
67717;SDS011;54511;47.532;19.180;2022-10-03T19:22:53;4.53;;;1.75;;
67717;SDS011;54511;47.532;19.180;2022-10-03T19:26:22;11.57;;;3.95;;
67717;SDS011;54511;47.532;19.180;2022-10-03T19:29:59;6.22;;;2.80;;
67717;SDS011;54511;47.532;19.180;2022-10-03T19:33:22;5.10;;;2.30;;
67717;SDS011;54511;47.532;19.180;2022-10-03T19:36:50;6.18;;;2.53;;
67717;SDS011;54511;47.532;19.180;2022-10-03T19:43:44;10.23;;;3.85;;
67717;SDS011;54511;47.532;19.180;2022-10-03T19:47:11;8.05;;;3.10;;
67717;SDS011;54511;47.532;19.180;2022-10-03T19:50:38;4.40;;;1.62;;
67717;SDS011;54511;47.532;19.180;2022-10-03T19:54:28;5.20;;;1.62;;
67717;SDS011;54511;47.532;19.180;2022-10-03T19:57:58;5.70;;;1.77;;
67717;SDS011;54511;47.532;19.180;2022-10-03T20:01:30;4.78;;;1.73;;
67717;SDS011;54511;47.532;19.180;2022-10-03T20:07:38;3.90;;;1.40;;
67717;SDS011;54511;47.532;19.180;2022-10-03T20:14:42;4.05;;;1.42;;
67717;SDS011;54511;47.532;19.180;2022-10-03T20:17:49;4.05;;;1.20;;
67717;SDS011;54511;47.532;19.180;2022-10-03T20:21:19;5.75;;;1.25;;
67717;SDS011;54511;47.532;19.180;2022-10-03T20:24:27;6.18;;;1.75;;
67717;SDS011;54511;47.532;19.180;2022-10-03T20:27:36;2.97;;;1.10;;
67717;SDS011;54511;47.532;19.180;2022-10-03T20:31:03;3.10;;;1.05;;
67717;SDS011;54511;47.532;19.180;2022-10-03T20:34:31;3.00;;;1.25;;
67717;SDS011;54511;47.532;19.180;2022-10-03T20:38:01;3.22;;;1.40;;
67717;SDS011;54511;47.532;19.180;2022-10-03T20:41:31;3.33;;;1.25;;
67717;SDS011;54511;47.532;19.180;2022-10-03T20:45:03;2.33;;;1.25;;
67717;SDS011;54511;47.532;19.180;2022-10-03T20:48:31;2.03;;;1.17;;
67717;SDS011;54511;47.532;19.180;2022-10-03T20:52:04;3.53;;;1.27;;
67717;SDS011;54511;47.532;19.180;2022-10-03T20:55:15;2.60;;;1.40;;
67717;SDS011;54511;47.532;19.180;2022-10-03T20:58:42;2.70;;;1.12;;
67717;SDS011;54511;47.532;19.180;2022-10-03T21:01:59;2.37;;;1.10;;
67717;SDS011;54511;47.532;19.180;2022-10-03T21:05:33;1.92;;;1.10;;
67717;SDS011;54511;47.532;19.180;2022-10-03T21:08:56;2.85;;;1.17;;
67717;SDS011;54511;47.532;19.180;2022-10-03T21:12:25;3.78;;;1.40;;
67717;SDS011;54511;47.532;19.180;2022-10-03T21:15:51;2.78;;;1.12;;
67717;SDS011;54511;47.532;19.180;2022-10-03T21:22:25;4.50;;;1.20;;
67717;SDS011;54511;47.532;19.180;2022-10-03T21:26:05;3.50;;;1.30;;
67717;SDS011;54511;47.532;19.180;2022-10-03T21:29:50;2.83;;;1.30;;
67717;SDS011;54511;47.532;19.180;2022-10-03T21:33:24;5.22;;;1.30;;
67717;SDS011;54511;47.532;19.180;2022-10-03T21:37:04;3.12;;;1.37;;
67717;SDS011;54511;47.532;19.180;2022-10-03T21:40:53;7.28;;;1.60;;
67717;SDS011;54511;47.532;19.180;2022-10-03T21:44:25;2.55;;;1.20;;
67717;SDS011;54511;47.532;19.180;2022-10-03T21:47:45;4.82;;;1.70;;
67717;SDS011;54511;47.532;19.180;2022-10-03T21:51:15;3.85;;;1.42;;
67717;SDS011;54511;47.532;19.180;2022-10-03T21:54:44;4.18;;;1.60;;
67717;SDS011;54511;47.532;19.180;2022-10-03T21:58:18;9.82;;;1.73;;
67717;SDS011;54511;47.532;19.180;2022-10-03T22:01:51;5.07;;;1.58;;
67717;SDS011;54511;47.532;19.180;2022-10-03T22:05:28;4.68;;;1.60;;
67717;SDS011;54511;47.532;19.180;2022-10-03T22:08:58;4.55;;;1.27;;
67717;SDS011;54511;47.532;19.180;2022-10-03T22:12:03;5.93;;;1.60;;
67717;SDS011;54511;47.532;19.180;2022-10-03T22:15:33;6.22;;;1.80;;
67717;SDS011;54511;47.532;19.180;2022-10-03T22:19:09;4.12;;;1.30;;
67717;SDS011;54511;47.532;19.180;2022-10-03T22:22:51;3.08;;;1.40;;
67717;SDS011;54511;47.532;19.180;2022-10-03T22:26:25;4.07;;;1.65;;
67717;SDS011;54511;47.532;19.180;2022-10-03T22:33:21;6.32;;;1.65;;
67717;SDS011;54511;47.532;19.180;2022-10-03T22:37:00;8.27;;;2.10;;
67717;SDS011;54511;47.532;19.180;2022-10-03T22:40:18;4.05;;;1.40;;
67717;SDS011;54511;47.532;19.180;2022-10-03T22:43:46;4.85;;;1.48;;
67717;SDS011;54511;47.532;19.180;2022-10-03T22:47:21;5.75;;;1.60;;
67717;SDS011;54511;47.532;19.180;2022-10-03T22:50:45;8.02;;;1.70;;
67717;SDS011;54511;47.532;19.180;2022-10-03T22:54:14;3.15;;;1.25;;
67717;SDS011;54511;47.532;19.180;2022-10-03T22:57:43;5.47;;;1.58;;
67717;SDS011;54511;47.532;19.180;2022-10-03T23:01:11;2.97;;;1.40;;
67717;SDS011;54511;47.532;19.180;2022-10-03T23:04:33;3.07;;;1.47;;
67717;SDS011;54511;47.532;19.180;2022-10-03T23:08:02;4.55;;;1.50;;
67717;SDS011;54511;47.532;19.180;2022-10-03T23:11:38;4.62;;;1.70;;
67717;SDS011;54511;47.532;19.180;2022-10-03T23:14:46;3.08;;;1.45;;
67717;SDS011;54511;47.532;19.180;2022-10-03T23:21:54;4.50;;;1.70;;
67717;SDS011;54511;47.532;19.180;2022-10-03T23:25:25;5.12;;;1.60;;
67717;SDS011;54511;47.532;19.180;2022-10-03T23:28:54;6.35;;;1.80;;
67717;SDS011;54511;47.532;19.180;2022-10-03T23:32:49;5.07;;;1.67;;
67717;SDS011;54511;47.532;19.180;2022-10-03T23:36:01;4.30;;;1.50;;
67717;SDS011;54511;47.532;19.180;2022-10-03T23:45:43;6.47;;;1.65;;
67717;SDS011;54511;47.532;19.180;2022-10-03T23:49:11;3.50;;;1.40;;
67717;SDS011;54511;47.532;19.180;2022-10-03T23:52:39;4.35;;;2.08;;
67717;SDS011;54511;47.532;19.180;2022-10-03T23:55:47;5.03;;;1.80;;
67717;SDS011;54511;47.532;19.180;2022-10-03T23:59:23;7.12;;;1.40;;
